sensor_id;sensor_type;location;lat;lon;timestamp;P1;durP1;ratioP1;P2;durP2;ratioP2
46931;SDS011;32670;51.464;11.964;2023-05-10T00:00:32;5.37;;;4.97;;
46931;SDS011;32670;51.464;11.964;2023-05-10T00:02:58;6.00;;;5.40;;
46931;SDS011;32670;51.464;11.964;2023-05-10T00:05:23;5.70;;;5.30;;
46931;SDS011;32670;51.464;11.964;2023-05-10T00:07:49;5.13;;;4.73;;
46931;SDS011;32670;51.464;11.964;2023-05-10T00:10:14;5.40;;;5.00;;
46931;SDS011;32670;51.464;11.964;2023-05-10T00:12:39;5.77;;;5.27;;
46931;SDS011;32670;51.464;11.964;2023-05-10T00:15:05;5.17;;;4.67;;
46931;SDS011;32670;51.464;11.964;2023-05-10T00:17:31;5.07;;;4.63;;
46931;SDS011;32670;51.464;11.964;2023-05-10T00:19:57;5.43;;;5.00;;
46931;SDS011;32670;51.464;11.964;2023-05-10T00:22:22;5.40;;;5.00;;
46931;SDS011;32670;51.464;11.964;2023-05-10T00:24:48;5.50;;;5.10;;
46931;SDS011;32670;51.464;11.964;2023-05-10T00:27:13;5.07;;;4.67;;
46931;SDS011;32670;51.464;11.964;2023-05-10T00:29:38;5.20;;;4.70;;
46931;SDS011;32670;51.464;11.964;2023-05-10T00:32:04;5.00;;;4.60;;
46931;SDS011;32670;51.464;11.964;2023-05-10T00:34:29;5.30;;;4.80;;
46931;SDS011;32670;51.464;11.964;2023-05-10T00:36:55;5.67;;;5.20;;
46931;SDS011;32670;51.464;11.964;2023-05-10T00:39:21;5.30;;;4.80;;
46931;SDS011;32670;51.464;11.964;2023-05-10T00:41:46;4.90;;;4.50;;
46931;SDS011;32670;51.464;11.964;2023-05-10T00:44:12;4.93;;;4.53;;
46931;SDS011;32670;51.464;11.964;2023-05-10T00:46:37;5.20;;;4.80;;
46931;SDS011;32670;51.464;11.964;2023-05-10T00:49:03;4.73;;;4.40;;
46931;SDS011;32670;51.464;11.964;2023-05-10T00:51:29;5.17;;;4.60;;
46931;SDS011;32670;51.464;11.964;2023-05-10T00:53:56;4.80;;;4.40;;
46931;SDS011;32670;51.464;11.964;2023-05-10T00:56:21;4.67;;;4.27;;
46931;SDS011;32670;51.464;11.964;2023-05-10T00:58:49;4.80;;;4.40;;
46931;SDS011;32670;51.464;11.964;2023-05-10T01:01:14;5.90;;;4.77;;
46931;SDS011;32670;51.464;11.964;2023-05-10T01:03:40;4.83;;;4.43;;
46931;SDS011;32670;51.464;11.964;2023-05-10T01:06:06;5.30;;;4.90;;
46931;SDS011;32670;51.464;11.964;2023-05-10T01:08:32;5.33;;;4.93;;
46931;SDS011;32670;51.464;11.964;2023-05-10T01:10:58;4.77;;;4.37;;
46931;SDS011;32670;51.464;11.964;2023-05-10T01:13:34;5.00;;;4.60;;
46931;SDS011;32670;51.464;11.964;2023-05-10T01:16:04;4.67;;;4.33;;
46931;SDS011;32670;51.464;11.964;2023-05-10T01:18:31;4.70;;;4.40;;
46931;SDS011;32670;51.464;11.964;2023-05-10T01:21:04;5.23;;;4.73;;
46931;SDS011;32670;51.464;11.964;2023-05-10T01:23:38;4.77;;;4.37;;
46931;SDS011;32670;51.464;11.964;2023-05-10T01:32:16;4.93;;;4.40;;
46931;SDS011;32670;51.464;11.964;2023-05-10T01:35:06;4.87;;;4.37;;
46931;SDS011;32670;51.464;11.964;2023-05-10T01:37:45;4.90;;;4.50;;
46931;SDS011;32670;51.464;11.964;2023-05-10T01:42:46;4.63;;;4.20;;
46931;SDS011;32670;51.464;11.964;2023-05-10T01:45:50;4.90;;;4.50;;
46931;SDS011;32670;51.464;11.964;2023-05-10T01:48:24;4.87;;;4.57;;
46931;SDS011;32670;51.464;11.964;2023-05-10T01:50:52;4.83;;;4.43;;
46931;SDS011;32670;51.464;11.964;2023-05-10T01:53:19;5.00;;;4.60;;
46931;SDS011;32670;51.464;11.964;2023-05-10T01:55:48;4.87;;;4.37;;
46931;SDS011;32670;51.464;11.964;2023-05-10T01:58:19;6.00;;;4.40;;
46931;SDS011;32670;51.464;11.964;2023-05-10T02:00:47;4.73;;;4.17;;
46931;SDS011;32670;51.464;11.964;2023-05-10T02:03:15;4.77;;;4.37;;
46931;SDS011;32670;51.464;11.964;2023-05-10T02:05:43;5.13;;;4.73;;
46931;SDS011;32670;51.464;11.964;2023-05-10T02:08:09;4.60;;;4.20;;
46931;SDS011;32670;51.464;11.964;2023-05-10T02:10:36;5.97;;;4.20;;
46931;SDS011;32670;51.464;11.964;2023-05-10T02:13:04;4.67;;;4.20;;
46931;SDS011;32670;51.464;11.964;2023-05-10T02:15:32;4.63;;;4.10;;
46931;SDS011;32670;51.464;11.964;2023-05-10T02:17:59;4.70;;;4.30;;
46931;SDS011;32670;51.464;11.964;2023-05-10T02:20:27;7.40;;;4.10;;
46931;SDS011;32670;51.464;11.964;2023-05-10T02:22:54;5.00;;;4.07;;
46931;SDS011;32670;51.464;11.964;2023-05-10T02:25:21;4.87;;;4.33;;
46931;SDS011;32670;51.464;11.964;2023-05-10T02:27:48;5.13;;;4.10;;
46931;SDS011;32670;51.464;11.964;2023-05-10T02:30:16;5.07;;;4.63;;
46931;SDS011;32670;51.464;11.964;2023-05-10T02:32:43;4.30;;;4.00;;
46931;SDS011;32670;51.464;11.964;2023-05-10T02:35:09;4.10;;;3.80;;
46931;SDS011;32670;51.464;11.964;2023-05-10T02:37:37;4.67;;;4.23;;
46931;SDS011;32670;51.464;11.964;2023-05-10T02:40:03;4.70;;;4.30;;
46931;SDS011;32670;51.464;11.964;2023-05-10T02:42:31;4.57;;;4.17;;
46931;SDS011;32670;51.464;11.964;2023-05-10T02:45:00;4.80;;;3.80;;
46931;SDS011;32670;51.464;11.964;2023-05-10T02:47:28;4.67;;;4.27;;
46931;SDS011;32670;51.464;11.964;2023-05-10T02:49:54;4.50;;;4.20;;
46931;SDS011;32670;51.464;11.964;2023-05-10T02:52:21;4.77;;;4.37;;
46931;SDS011;32670;51.464;11.964;2023-05-10T02:54:51;4.40;;;4.10;;
46931;SDS011;32670;51.464;11.964;2023-05-10T02:57:22;3.87;;;3.57;;
46931;SDS011;32670;51.464;11.964;2023-05-10T02:59:52;4.20;;;3.80;;
46931;SDS011;32670;51.464;11.964;2023-05-10T03:02:17;4.17;;;3.87;;
46931;SDS011;32670;51.464;11.964;2023-05-10T03:04:43;5.33;;;3.97;;
46931;SDS011;32670;51.464;11.964;2023-05-10T03:07:08;8.30;;;4.13;;
46931;SDS011;32670;51.464;11.964;2023-05-10T03:09:35;7.57;;;4.50;;
46931;SDS011;32670;51.464;11.964;2023-05-10T03:12:03;5.60;;;4.27;;
46931;SDS011;32670;51.464;11.964;2023-05-10T03:14:57;4.47;;;4.07;;
46931;SDS011;32670;51.464;11.964;2023-05-10T03:17:39;5.27;;;4.00;;
46931;SDS011;32670;51.464;11.964;2023-05-10T03:20:35;4.20;;;3.90;;
46931;SDS011;32670;51.464;11.964;2023-05-10T03:23:27;4.13;;;3.83;;
46931;SDS011;32670;51.464;11.964;2023-05-10T03:25:54;6.40;;;4.00;;
46931;SDS011;32670;51.464;11.964;2023-05-10T03:28:20;4.33;;;3.90;;
46931;SDS011;32670;51.464;11.964;2023-05-10T03:30:47;7.57;;;4.00;;
46931;SDS011;32670;51.464;11.964;2023-05-10T03:33:13;4.40;;;4.00;;
46931;SDS011;32670;51.464;11.964;2023-05-10T03:35:39;4.20;;;3.90;;
46931;SDS011;32670;51.464;11.964;2023-05-10T03:38:04;4.20;;;3.90;;
46931;SDS011;32670;51.464;11.964;2023-05-10T03:40:30;4.23;;;3.73;;
46931;SDS011;32670;51.464;11.964;2023-05-10T03:42:57;4.20;;;3.90;;
46931;SDS011;32670;51.464;11.964;2023-05-10T03:45:23;4.77;;;3.87;;
46931;SDS011;32670;51.464;11.964;2023-05-10T03:47:49;4.60;;;4.30;;
46931;SDS011;32670;51.464;11.964;2023-05-10T03:50:14;4.10;;;3.80;;
46931;SDS011;32670;51.464;11.964;2023-05-10T03:52:40;4.20;;;3.90;;
46931;SDS011;32670;51.464;11.964;2023-05-10T03:55:06;4.17;;;3.87;;
46931;SDS011;32670;51.464;11.964;2023-05-10T03:57:31;4.17;;;3.87;;
46931;SDS011;32670;51.464;11.964;2023-05-10T03:59:57;3.93;;;3.63;;
46931;SDS011;32670;51.464;11.964;2023-05-10T04:02:22;4.37;;;4.07;;
46931;SDS011;32670;51.464;11.964;2023-05-10T04:04:48;9.57;;;4.10;;
46931;SDS011;32670;51.464;11.964;2023-05-10T04:07:13;5.37;;;3.90;;
46931;SDS011;32670;51.464;11.964;2023-05-10T04:09:39;6.80;;;4.00;;
46931;SDS011;32670;51.464;11.964;2023-05-10T04:12:05;3.83;;;3.57;;
46931;SDS011;32670;51.464;11.964;2023-05-10T04:14:31;4.30;;;3.90;;
46931;SDS011;32670;51.464;11.964;2023-05-10T04:16:56;4.20;;;3.90;;
46931;SDS011;32670;51.464;11.964;2023-05-10T04:19:21;3.93;;;3.60;;
46931;SDS011;32670;51.464;11.964;2023-05-10T04:21:47;4.00;;;3.63;;
46931;SDS011;32670;51.464;11.964;2023-05-10T04:24:13;4.10;;;3.80;;
46931;SDS011;32670;51.464;11.964;2023-05-10T04:26:38;4.00;;;3.70;;
46931;SDS011;32670;51.464;11.964;2023-05-10T04:29:04;10.23;;;3.83;;
46931;SDS011;32670;51.464;11.964;2023-05-10T04:31:29;4.00;;;3.70;;
46931;SDS011;32670;51.464;11.964;2023-05-10T04:33:54;6.53;;;3.90;;
46931;SDS011;32670;51.464;11.964;2023-05-10T04:36:20;3.87;;;3.57;;
46931;SDS011;32670;51.464;11.964;2023-05-10T04:38:46;3.80;;;3.50;;
46931;SDS011;32670;51.464;11.964;2023-05-10T04:41:11;3.83;;;3.53;;
46931;SDS011;32670;51.464;11.964;2023-05-10T04:43:37;4.30;;;3.90;;
46931;SDS011;32670;51.464;11.964;2023-05-10T04:46:03;4.20;;;3.63;;
46931;SDS011;32670;51.464;11.964;2023-05-10T04:48:29;3.63;;;3.40;;
46931;SDS011;32670;51.464;11.964;2023-05-10T04:50:55;3.70;;;3.40;;
46931;SDS011;32670;51.464;11.964;2023-05-10T04:53:21;3.70;;;3.40;;
46931;SDS011;32670;51.464;11.964;2023-05-10T04:55:46;3.90;;;3.60;;
46931;SDS011;32670;51.464;11.964;2023-05-10T04:58:12;3.73;;;3.43;;
46931;SDS011;32670;51.464;11.964;2023-05-10T05:00:38;3.70;;;3.40;;
46931;SDS011;32670;51.464;11.964;2023-05-10T05:03:04;3.80;;;3.50;;
46931;SDS011;32670;51.464;11.964;2023-05-10T05:05:30;4.57;;;4.20;;
46931;SDS011;32670;51.464;11.964;2023-05-10T05:07:55;6.10;;;3.80;;
46931;SDS011;32670;51.464;11.964;2023-05-10T05:10:21;4.10;;;3.80;;
46931;SDS011;32670;51.464;11.964;2023-05-10T05:12:46;8.03;;;3.70;;
46931;SDS011;32670;51.464;11.964;2023-05-10T05:15:12;6.40;;;3.60;;
46931;SDS011;32670;51.464;11.964;2023-05-10T05:17:37;6.33;;;3.90;;
46931;SDS011;32670;51.464;11.964;2023-05-10T05:20:03;5.63;;;3.17;;
46931;SDS011;32670;51.464;11.964;2023-05-10T05:22:28;7.53;;;3.20;;
46931;SDS011;32670;51.464;11.964;2023-05-10T05:24:54;4.80;;;3.13;;
46931;SDS011;32670;51.464;11.964;2023-05-10T05:27:20;4.87;;;2.73;;
46931;SDS011;32670;51.464;11.964;2023-05-10T05:29:49;3.53;;;3.23;;
46931;SDS011;32670;51.464;11.964;2023-05-10T05:32:15;4.00;;;3.10;;
46931;SDS011;32670;51.464;11.964;2023-05-10T05:34:41;5.30;;;2.80;;
46931;SDS011;32670;51.464;11.964;2023-05-10T05:37:07;6.30;;;3.57;;
46931;SDS011;32670;51.464;11.964;2023-05-10T05:39:32;5.63;;;3.53;;
46931;SDS011;32670;51.464;11.964;2023-05-10T05:41:57;4.30;;;2.93;;
46931;SDS011;32670;51.464;11.964;2023-05-10T05:44:23;6.47;;;3.33;;
46931;SDS011;32670;51.464;11.964;2023-05-10T05:46:48;7.27;;;3.57;;
46931;SDS011;32670;51.464;11.964;2023-05-10T05:49:14;7.13;;;3.33;;
46931;SDS011;32670;51.464;11.964;2023-05-10T05:51:39;6.63;;;3.10;;
46931;SDS011;32670;51.464;11.964;2023-05-10T05:54:05;9.63;;;3.30;;
46931;SDS011;32670;51.464;11.964;2023-05-10T05:56:31;5.97;;;2.80;;
46931;SDS011;32670;51.464;11.964;2023-05-10T05:58:56;7.10;;;3.07;;
46931;SDS011;32670;51.464;11.964;2023-05-10T06:01:22;7.43;;;3.33;;
46931;SDS011;32670;51.464;11.964;2023-05-10T06:03:47;5.57;;;3.33;;
46931;SDS011;32670;51.464;11.964;2023-05-10T06:06:13;4.57;;;2.80;;
46931;SDS011;32670;51.464;11.964;2023-05-10T06:08:38;6.60;;;3.00;;
46931;SDS011;32670;51.464;11.964;2023-05-10T06:11:03;12.97;;;3.50;;
46931;SDS011;32670;51.464;11.964;2023-05-10T06:13:29;7.67;;;2.97;;
46931;SDS011;32670;51.464;11.964;2023-05-10T06:15:57;6.73;;;2.97;;
46931;SDS011;32670;51.464;11.964;2023-05-10T06:18:23;9.77;;;3.50;;
46931;SDS011;32670;51.464;11.964;2023-05-10T06:20:49;9.27;;;3.00;;
46931;SDS011;32670;51.464;11.964;2023-05-10T06:23:15;5.60;;;2.87;;
46931;SDS011;32670;51.464;11.964;2023-05-10T06:25:40;6.33;;;2.93;;
46931;SDS011;32670;51.464;11.964;2023-05-10T06:28:06;6.13;;;2.93;;
46931;SDS011;32670;51.464;11.964;2023-05-10T06:30:31;4.43;;;2.67;;
46931;SDS011;32670;51.464;11.964;2023-05-10T06:32:57;4.23;;;2.83;;
46931;SDS011;32670;51.464;11.964;2023-05-10T06:35:22;4.30;;;2.87;;
46931;SDS011;32670;51.464;11.964;2023-05-10T06:37:48;8.60;;;2.80;;
46931;SDS011;32670;51.464;11.964;2023-05-10T06:40:14;3.17;;;2.40;;
46931;SDS011;32670;51.464;11.964;2023-05-10T06:42:39;4.10;;;2.80;;
46931;SDS011;32670;51.464;11.964;2023-05-10T06:45:05;9.27;;;2.60;;
46931;SDS011;32670;51.464;11.964;2023-05-10T06:47:31;7.13;;;2.60;;
46931;SDS011;32670;51.464;11.964;2023-05-10T06:49:56;5.03;;;2.83;;
46931;SDS011;32670;51.464;11.964;2023-05-10T06:52:22;2.87;;;2.40;;
46931;SDS011;32670;51.464;11.964;2023-05-10T06:54:48;3.80;;;2.80;;
46931;SDS011;32670;51.464;11.964;2023-05-10T06:57:13;2.60;;;2.40;;
46931;SDS011;32670;51.464;11.964;2023-05-10T06:59:39;3.90;;;2.60;;
46931;SDS011;32670;51.464;11.964;2023-05-10T07:02:04;2.50;;;2.30;;
46931;SDS011;32670;51.464;11.964;2023-05-10T07:04:30;6.77;;;2.53;;
46931;SDS011;32670;51.464;11.964;2023-05-10T07:06:56;3.60;;;2.50;;
46931;SDS011;32670;51.464;11.964;2023-05-10T07:09:22;2.83;;;2.30;;
46931;SDS011;32670;51.464;11.964;2023-05-10T07:11:49;4.67;;;2.70;;
46931;SDS011;32670;51.464;11.964;2023-05-10T07:14:14;3.37;;;2.80;;
46931;SDS011;32670;51.464;11.964;2023-05-10T07:16:40;4.93;;;2.50;;
46931;SDS011;32670;51.464;11.964;2023-05-10T07:19:05;3.73;;;2.53;;
46931;SDS011;32670;51.464;11.964;2023-05-10T07:21:31;3.33;;;2.20;;
46931;SDS011;32670;51.464;11.964;2023-05-10T07:23:57;3.17;;;2.73;;
46931;SDS011;32670;51.464;11.964;2023-05-10T07:26:22;3.40;;;2.40;;
46931;SDS011;32670;51.464;11.964;2023-05-10T07:28:48;3.27;;;2.40;;
46931;SDS011;32670;51.464;11.964;2023-05-10T07:31:14;2.67;;;2.43;;
46931;SDS011;32670;51.464;11.964;2023-05-10T07:33:39;3.07;;;2.60;;
46931;SDS011;32670;51.464;11.964;2023-05-10T07:36:05;3.57;;;2.60;;
46931;SDS011;32670;51.464;11.964;2023-05-10T07:38:30;5.10;;;2.93;;
46931;SDS011;32670;51.464;11.964;2023-05-10T07:40:56;2.70;;;2.50;;
46931;SDS011;32670;51.464;11.964;2023-05-10T07:43:21;2.60;;;2.40;;
46931;SDS011;32670;51.464;11.964;2023-05-10T07:45:47;5.00;;;2.60;;
46931;SDS011;32670;51.464;11.964;2023-05-10T07:48:12;2.80;;;2.27;;
46931;SDS011;32670;51.464;11.964;2023-05-10T07:50:38;3.20;;;2.30;;
46931;SDS011;32670;51.464;11.964;2023-05-10T07:53:03;2.83;;;2.30;;
46931;SDS011;32670;51.464;11.964;2023-05-10T07:55:29;5.00;;;2.27;;
46931;SDS011;32670;51.464;11.964;2023-05-10T07:57:54;2.40;;;2.20;;
46931;SDS011;32670;51.464;11.964;2023-05-10T08:00:20;2.70;;;2.40;;
46931;SDS011;32670;51.464;11.964;2023-05-10T08:02:46;2.33;;;2.10;;
46931;SDS011;32670;51.464;11.964;2023-05-10T08:05:12;4.83;;;2.40;;
46931;SDS011;32670;51.464;11.964;2023-05-10T08:07:38;3.23;;;2.40;;
46931;SDS011;32670;51.464;11.964;2023-05-10T08:10:04;2.60;;;2.23;;
46931;SDS011;32670;51.464;11.964;2023-05-10T08:12:30;2.83;;;2.53;;
46931;SDS011;32670;51.464;11.964;2023-05-10T08:14:55;2.50;;;2.30;;
46931;SDS011;32670;51.464;11.964;2023-05-10T08:17:21;2.93;;;2.20;;
46931;SDS011;32670;51.464;11.964;2023-05-10T08:19:47;3.30;;;2.40;;
46931;SDS011;32670;51.464;11.964;2023-05-10T08:22:12;2.77;;;2.00;;
46931;SDS011;32670;51.464;11.964;2023-05-10T08:24:38;2.30;;;2.07;;
46931;SDS011;32670;51.464;11.964;2023-05-10T08:27:07;2.70;;;2.30;;
46931;SDS011;32670;51.464;11.964;2023-05-10T08:29:33;2.50;;;2.30;;
46931;SDS011;32670;51.464;11.964;2023-05-10T08:31:58;2.93;;;2.40;;
46931;SDS011;32670;51.464;11.964;2023-05-10T08:34:24;2.40;;;2.20;;
46931;SDS011;32670;51.464;11.964;2023-05-10T08:36:49;1.93;;;1.83;;
46931;SDS011;32670;51.464;11.964;2023-05-10T08:39:15;2.47;;;2.03;;
46931;SDS011;32670;51.464;11.964;2023-05-10T08:41:40;2.27;;;2.07;;
46931;SDS011;32670;51.464;11.964;2023-05-10T08:44:09;2.10;;;1.90;;
46931;SDS011;32670;51.464;11.964;2023-05-10T08:46:35;2.27;;;2.07;;
46931;SDS011;32670;51.464;11.964;2023-05-10T08:49:04;2.40;;;2.00;;
46931;SDS011;32670;51.464;11.964;2023-05-10T08:51:36;2.10;;;1.90;;
46931;SDS011;32670;51.464;11.964;2023-05-10T08:54:04;2.30;;;2.13;;
46931;SDS011;32670;51.464;11.964;2023-05-10T08:56:30;2.77;;;2.27;;
46931;SDS011;32670;51.464;11.964;2023-05-10T08:58:56;2.10;;;2.00;;
46931;SDS011;32670;51.464;11.964;2023-05-10T09:01:22;2.40;;;2.20;;
46931;SDS011;32670;51.464;11.964;2023-05-10T09:03:48;2.37;;;2.10;;
46931;SDS011;32670;51.464;11.964;2023-05-10T09:06:14;2.30;;;2.10;;
46931;SDS011;32670;51.464;11.964;2023-05-10T09:08:41;2.97;;;2.10;;
46931;SDS011;32670;51.464;11.964;2023-05-10T09:11:07;2.20;;;2.00;;
46931;SDS011;32670;51.464;11.964;2023-05-10T09:13:35;2.20;;;1.90;;
46931;SDS011;32670;51.464;11.964;2023-05-10T09:16:01;2.20;;;2.00;;
46931;SDS011;32670;51.464;11.964;2023-05-10T09:18:28;2.60;;;2.17;;
46931;SDS011;32670;51.464;11.964;2023-05-10T09:20:53;2.30;;;2.10;;
46931;SDS011;32670;51.464;11.964;2023-05-10T09:23:19;2.10;;;1.90;;
46931;SDS011;32670;51.464;11.964;2023-05-10T09:25:45;3.53;;;2.17;;
46931;SDS011;32670;51.464;11.964;2023-05-10T09:28:10;2.40;;;2.20;;
46931;SDS011;32670;51.464;11.964;2023-05-10T09:30:36;2.30;;;1.97;;
46931;SDS011;32670;51.464;11.964;2023-05-10T09:33:02;2.43;;;2.23;;
46931;SDS011;32670;51.464;11.964;2023-05-10T09:35:29;2.53;;;1.77;;
46931;SDS011;32670;51.464;11.964;2023-05-10T09:37:56;2.77;;;2.00;;
46931;SDS011;32670;51.464;11.964;2023-05-10T09:40:24;2.40;;;2.20;;
46931;SDS011;32670;51.464;11.964;2023-05-10T09:45:31;2.93;;;2.03;;
46931;SDS011;32670;51.464;11.964;2023-05-10T09:47:58;2.13;;;1.90;;
46931;SDS011;32670;51.464;11.964;2023-05-10T09:50:25;2.57;;;2.10;;
46931;SDS011;32670;51.464;11.964;2023-05-10T09:52:53;2.27;;;2.00;;
46931;SDS011;32670;51.464;11.964;2023-05-10T09:55:23;2.07;;;1.90;;
46931;SDS011;32670;51.464;11.964;2023-05-10T09:57:50;2.20;;;2.00;;
46931;SDS011;32670;51.464;11.964;2023-05-10T10:00:23;2.10;;;1.90;;
46931;SDS011;32670;51.464;11.964;2023-05-10T10:02:56;2.03;;;1.93;;
46931;SDS011;32670;51.464;11.964;2023-05-10T10:05:33;2.30;;;1.93;;
46931;SDS011;32670;51.464;11.964;2023-05-10T10:08:00;1.90;;;1.77;;
46931;SDS011;32670;51.464;11.964;2023-05-10T10:10:29;2.03;;;1.70;;
46931;SDS011;32670;51.464;11.964;2023-05-10T10:12:56;1.93;;;1.83;;
46931;SDS011;32670;51.464;11.964;2023-05-10T10:15:22;2.33;;;1.90;;
46931;SDS011;32670;51.464;11.964;2023-05-10T10:17:48;2.10;;;2.00;;
46931;SDS011;32670;51.464;11.964;2023-05-10T10:20:16;2.43;;;2.20;;
46931;SDS011;32670;51.464;11.964;2023-05-10T10:22:42;1.93;;;1.83;;
46931;SDS011;32670;51.464;11.964;2023-05-10T10:25:11;2.30;;;2.10;;
46931;SDS011;32670;51.464;11.964;2023-05-10T10:27:42;2.43;;;2.23;;
46931;SDS011;32670;51.464;11.964;2023-05-10T10:35:42;2.40;;;2.10;;
46931;SDS011;32670;51.464;11.964;2023-05-10T10:38:10;3.70;;;1.83;;
46931;SDS011;32670;51.464;11.964;2023-05-10T10:40:37;2.20;;;2.00;;
46931;SDS011;32670;51.464;11.964;2023-05-10T10:46:09;2.20;;;2.00;;
46931;SDS011;32670;51.464;11.964;2023-05-10T10:48:47;2.00;;;1.90;;
46931;SDS011;32670;51.464;11.964;2023-05-10T10:51:16;3.10;;;2.00;;
46931;SDS011;32670;51.464;11.964;2023-05-10T10:53:41;2.63;;;2.20;;
46931;SDS011;32670;51.464;11.964;2023-05-10T10:56:09;2.03;;;1.90;;
46931;SDS011;32670;51.464;11.964;2023-05-10T10:58:36;1.90;;;1.80;;
46931;SDS011;32670;51.464;11.964;2023-05-10T11:01:11;1.80;;;1.70;;
46931;SDS011;32670;51.464;11.964;2023-05-10T11:03:38;2.17;;;2.00;;
46931;SDS011;32670;51.464;11.964;2023-05-10T11:06:04;1.70;;;1.60;;
46931;SDS011;32670;51.464;11.964;2023-05-10T11:08:33;2.23;;;2.03;;
46931;SDS011;32670;51.464;11.964;2023-05-10T11:11:06;1.90;;;1.80;;
46931;SDS011;32670;51.464;11.964;2023-05-10T11:13:42;2.70;;;1.90;;
46931;SDS011;32670;51.464;11.964;2023-05-10T11:18:36;2.10;;;1.80;;
46931;SDS011;32670;51.464;11.964;2023-05-10T11:21:02;2.40;;;1.80;;
46931;SDS011;32670;51.464;11.964;2023-05-10T11:23:47;1.80;;;1.70;;
46931;SDS011;32670;51.464;11.964;2023-05-10T11:26:17;1.80;;;1.70;;
46931;SDS011;32670;51.464;11.964;2023-05-10T11:28:47;1.70;;;1.60;;
46931;SDS011;32670;51.464;11.964;2023-05-10T11:31:13;2.03;;;1.93;;
46931;SDS011;32670;51.464;11.964;2023-05-10T11:33:46;2.03;;;1.93;;
46931;SDS011;32670;51.464;11.964;2023-05-10T11:36:17;2.27;;;1.80;;
46931;SDS011;32670;51.464;11.964;2023-05-10T11:38:44;2.07;;;1.97;;
46931;SDS011;32670;51.464;11.964;2023-05-10T11:41:10;1.80;;;1.70;;
46931;SDS011;32670;51.464;11.964;2023-05-10T11:43:37;1.80;;;1.70;;
46931;SDS011;32670;51.464;11.964;2023-05-10T11:46:06;1.70;;;1.60;;
46931;SDS011;32670;51.464;11.964;2023-05-10T11:48:36;2.13;;;1.93;;
46931;SDS011;32670;51.464;11.964;2023-05-10T11:51:03;2.27;;;1.90;;
46931;SDS011;32670;51.464;11.964;2023-05-10T11:53:32;1.97;;;1.80;;
46931;SDS011;32670;51.464;11.964;2023-05-10T11:56:07;1.87;;;1.77;;
46931;SDS011;32670;51.464;11.964;2023-05-10T11:58:36;1.70;;;1.60;;
46931;SDS011;32670;51.464;11.964;2023-05-10T12:01:03;1.60;;;1.50;;
46931;SDS011;32670;51.464;11.964;2023-05-10T12:03:30;1.70;;;1.60;;
46931;SDS011;32670;51.464;11.964;2023-05-10T12:05:55;1.70;;;1.60;;
46931;SDS011;32670;51.464;11.964;2023-05-10T12:08:23;2.63;;;1.70;;
46931;SDS011;32670;51.464;11.964;2023-05-10T12:10:50;1.90;;;1.73;;
46931;SDS011;32670;51.464;11.964;2023-05-10T12:13:16;1.60;;;1.50;;
46931;SDS011;32670;51.464;11.964;2023-05-10T12:15:42;1.90;;;1.80;;
46931;SDS011;32670;51.464;11.964;2023-05-10T12:18:11;1.80;;;1.70;;
46931;SDS011;32670;51.464;11.964;2023-05-10T12:20:38;1.80;;;1.70;;
46931;SDS011;32670;51.464;11.964;2023-05-10T12:23:04;1.80;;;1.70;;
46931;SDS011;32670;51.464;11.964;2023-05-10T12:25:31;1.90;;;1.80;;
46931;SDS011;32670;51.464;11.964;2023-05-10T12:27:58;1.80;;;1.50;;
46931;SDS011;32670;51.464;11.964;2023-05-10T12:30:28;2.00;;;1.90;;
46931;SDS011;32670;51.464;11.964;2023-05-10T12:33:07;1.50;;;1.40;;
46931;SDS011;32670;51.464;11.964;2023-05-10T12:35:43;1.60;;;1.50;;
46931;SDS011;32670;51.464;11.964;2023-05-10T12:38:26;1.57;;;1.47;;
46931;SDS011;32670;51.464;11.964;2023-05-10T12:41:06;1.80;;;1.70;;
46931;SDS011;32670;51.464;11.964;2023-05-10T12:43:33;1.97;;;1.50;;
46931;SDS011;32670;51.464;11.964;2023-05-10T12:48:31;1.63;;;1.53;;
46931;SDS011;32670;51.464;11.964;2023-05-10T12:50:58;2.40;;;1.43;;
46931;SDS011;32670;51.464;11.964;2023-05-10T12:53:24;1.70;;;1.60;;
46931;SDS011;32670;51.464;11.964;2023-05-10T12:55:49;1.60;;;1.50;;
46931;SDS011;32670;51.464;11.964;2023-05-10T12:58:15;1.53;;;1.43;;
46931;SDS011;32670;51.464;11.964;2023-05-10T13:00:40;1.53;;;1.43;;
46931;SDS011;32670;51.464;11.964;2023-05-10T13:03:06;1.83;;;1.73;;
46931;SDS011;32670;51.464;11.964;2023-05-10T13:05:32;1.60;;;1.50;;
46931;SDS011;32670;51.464;11.964;2023-05-10T13:07:57;1.70;;;1.60;;
46931;SDS011;32670;51.464;11.964;2023-05-10T13:10:23;1.60;;;1.50;;
46931;SDS011;32670;51.464;11.964;2023-05-10T13:12:49;1.70;;;1.60;;
46931;SDS011;32670;51.464;11.964;2023-05-10T13:15:15;1.70;;;1.60;;
46931;SDS011;32670;51.464;11.964;2023-05-10T13:17:40;1.60;;;1.50;;
46931;SDS011;32670;51.464;11.964;2023-05-10T13:20:07;1.60;;;1.50;;
46931;SDS011;32670;51.464;11.964;2023-05-10T13:22:34;1.70;;;1.60;;
46931;SDS011;32670;51.464;11.964;2023-05-10T13:25:00;1.53;;;1.43;;
46931;SDS011;32670;51.464;11.964;2023-05-10T13:27:25;3.00;;;1.60;;
46931;SDS011;32670;51.464;11.964;2023-05-10T13:29:50;2.07;;;1.77;;
46931;SDS011;32670;51.464;11.964;2023-05-10T13:32:16;1.80;;;1.70;;
46931;SDS011;32670;51.464;11.964;2023-05-10T13:34:41;2.20;;;1.50;;
46931;SDS011;32670;51.464;11.964;2023-05-10T13:37:07;1.90;;;1.80;;
46931;SDS011;32670;51.464;11.964;2023-05-10T13:39:32;1.70;;;1.60;;
46931;SDS011;32670;51.464;11.964;2023-05-10T13:41:59;2.07;;;1.50;;
46931;SDS011;32670;51.464;11.964;2023-05-10T13:44:24;1.43;;;1.33;;
46931;SDS011;32670;51.464;11.964;2023-05-10T13:46:50;1.80;;;1.53;;
46931;SDS011;32670;51.464;11.964;2023-05-10T13:49:16;1.97;;;1.47;;
46931;SDS011;32670;51.464;11.964;2023-05-10T13:51:42;1.77;;;1.60;;
46931;SDS011;32670;51.464;11.964;2023-05-10T13:54:08;1.70;;;1.60;;
46931;SDS011;32670;51.464;11.964;2023-05-10T13:56:34;1.50;;;1.40;;
46931;SDS011;32670;51.464;11.964;2023-05-10T13:58:59;1.60;;;1.50;;
46931;SDS011;32670;51.464;11.964;2023-05-10T14:01:25;1.73;;;1.60;;
46931;SDS011;32670;51.464;11.964;2023-05-10T14:03:51;1.97;;;1.70;;
46931;SDS011;32670;51.464;11.964;2023-05-10T14:06:16;1.50;;;1.40;;
46931;SDS011;32670;51.464;11.964;2023-05-10T14:08:42;1.50;;;1.40;;
46931;SDS011;32670;51.464;11.964;2023-05-10T14:11:07;1.50;;;1.40;;
46931;SDS011;32670;51.464;11.964;2023-05-10T14:13:33;1.60;;;1.50;;
46931;SDS011;32670;51.464;11.964;2023-05-10T14:15:58;1.87;;;1.53;;
46931;SDS011;32670;51.464;11.964;2023-05-10T14:18:25;2.00;;;1.40;;
46931;SDS011;32670;51.464;11.964;2023-05-10T14:20:51;1.50;;;1.40;;
46931;SDS011;32670;51.464;11.964;2023-05-10T14:23:16;1.33;;;1.30;;
46931;SDS011;32670;51.464;11.964;2023-05-10T14:25:44;1.70;;;1.60;;
46931;SDS011;32670;51.464;11.964;2023-05-10T14:28:09;1.63;;;1.53;;
46931;SDS011;32670;51.464;11.964;2023-05-10T14:30:35;1.50;;;1.40;;
46931;SDS011;32670;51.464;11.964;2023-05-10T14:33:01;1.40;;;1.33;;
46931;SDS011;32670;51.464;11.964;2023-05-10T14:35:27;1.40;;;1.30;;
46931;SDS011;32670;51.464;11.964;2023-05-10T14:37:53;1.70;;;1.60;;
46931;SDS011;32670;51.464;11.964;2023-05-10T14:40:19;1.57;;;1.47;;
46931;SDS011;32670;51.464;11.964;2023-05-10T14:42:45;1.50;;;1.40;;
46931;SDS011;32670;51.464;11.964;2023-05-10T14:45:11;1.50;;;1.40;;
46931;SDS011;32670;51.464;11.964;2023-05-10T14:47:37;1.67;;;1.50;;
46931;SDS011;32670;51.464;11.964;2023-05-10T14:50:02;1.50;;;1.40;;
46931;SDS011;32670;51.464;11.964;2023-05-10T14:52:28;1.53;;;1.43;;
46931;SDS011;32670;51.464;11.964;2023-05-10T14:54:54;1.53;;;1.40;;
46931;SDS011;32670;51.464;11.964;2023-05-10T14:57:19;1.30;;;1.20;;